MOL Paramount — 3ECH9 — position and weather

sailwx.info

Track history (hours):
 
Tides and Currents Weather Stations Pressure Air Temp Water Temp Dewpoint Dewpoint Depression Visibility Wind Speed Wind Dir Waves Ship Positions

MOL Paramount

Last reported at 2016-Nov-30 10:06 UTC. Time now 2016-Dec-06 14:05 UTC.
Position N 28°56' W 094°23'.

Length 293 m; draft 11.8 m.

Type: Cargo ship. MMSI: 371519000.

Date/timePositionNaut miles runAvg speedWind from/ knotsBaromVisibWave heightAir tempDewpointWater temp
2016-Nov-30 10:06N 28°56' W 094°23'3111.9
2016-Nov-30 07:29N 29°21' W 094°45'1212.7
2016-Nov-30 06:33N 29°30' W 094°52'1111.1
2016-Nov-30 05:33N 29°40' W 094°59'2 1.5
2016-Nov-30 04:26N 29°41' W 095°00'0 0.0
2016-Nov-30 03:26N 29°41' W 095°00'0 0.0
2016-Nov-30 02:26N 29°41' W 095°00'0 0.0
2016-Nov-30 01:23N 29°41' W 095°00'0 0.0
2016-Nov-30 00:32N 29°41' W 095°00'0 0.0
2016-Nov-29 23:05N 29°41' W 095°00'0 0.0
2016-Nov-29 22:23N 29°41' W 095°00'0 0.0
2016-Nov-29 21:29N 29°41' W 095°00'0 0.0
2016-Nov-29 20:32N 29°41' W 095°00'0 0.0
2016-Nov-29 19:29N 29°41' W 095°00'0 0.0
2016-Nov-29 18:17N 29°41' W 095°00'0 0.0
2016-Nov-29 16:32N 29°41' W 095°00'0 0.0
2016-Nov-29 15:32N 29°41' W 095°00'0 0.0
2016-Nov-29 14:32N 29°41' W 095°00'0 0.0
2016-Nov-29 13:32N 29°41' W 095°00'0 0.0
2016-Nov-29 12:32N 29°41' W 095°00'0 0.0
2016-Nov-29 10:20N 29°41' W 095°00'0 0.0
2016-Nov-29 09:29N 29°41' W 095°00'0 0.0
2016-Nov-29 08:26N 29°41' W 095°00'0 0.0
2016-Nov-29 07:29N 29°41' W 095°00'0 0.0
2016-Nov-29 06:32N 29°41' W 095°00'0 0.0
2016-Nov-29 05:32N 29°41' W 095°00'0 0.0
2016-Nov-29 04:32N 29°41' W 095°00'0 0.0
2016-Nov-29 03:29N 29°41' W 095°00'0 0.0
2016-Nov-29 02:32N 29°41' W 095°00'0 0.0
2016-Nov-29 01:32N 29°41' W 095°00'0 0.0
2016-Nov-29 00:23N 29°41' W 095°00'0 0.0
2016-Nov-28 23:32N 29°41' W 095°00'0 0.0
2016-Nov-28 22:17N 29°41' W 095°00'0 0.0
2016-Nov-28 21:32N 29°41' W 095°00'0 0.0
2016-Nov-28 20:32N 29°41' W 095°00'0 0.0
2016-Nov-28 19:23N 29°41' W 095°00'0 0.0
2016-Nov-28 18:26N 29°41' W 095°00'0 0.0
2016-Nov-28 17:23N 29°41' W 095°00'0 0.0
2016-Nov-28 16:32N 29°41' W 095°00'0 0.0
2016-Nov-28 15:14N 29°41' W 095°00'0 0.0
2016-Nov-28 14:29N 29°41' W 095°00'0 0.0
2016-Nov-28 13:32N 29°41' W 095°00'0 0.1
2016-Nov-28 12:33N 29°41' W 095°00'4 4.4
2016-Nov-28 11:33N 29°37' W 094°57'1010.4
2016-Nov-28 10:33N 29°28' W 094°51'  
2016-Nov-25 14:16N 19°46' W 096°11'1216.0
2016-Nov-25 13:32N 19°35' W 096°06'1716.7
2016-Nov-25 12:30N 19°20' W 095°58'1010.4
2016-Nov-25 11:31N 19°12' W 096°05'3 3.1
2016-Nov-25 10:31N 19°13' W 096°08'0 0.0
2016-Nov-25 09:19N 19°13' W 096°08'0 0.0
2016-Nov-25 08:07N 19°13' W 096°08'0 0.0
2016-Nov-25 07:31N 19°13' W 096°08'0 0.0
2016-Nov-25 04:31N 19°13' W 096°08'0 0.0
2016-Nov-25 03:22N 19°13' W 096°08'0 0.0
2016-Nov-25 02:25N 19°13' W 096°08'0 0.0
2016-Nov-25 01:22N 19°13' W 096°08'0 0.0
2016-Nov-24 23:28N 19°13' W 096°08'0 0.0
2016-Nov-24 22:25N 19°13' W 096°08'0 0.0
2016-Nov-24 20:13N 19°13' W 096°08'0 0.0
2016-Nov-24 19:31N 19°13' W 096°08'0 0.0
2016-Nov-24 18:10N 19°13' W 096°08'1 1.2
2016-Nov-24 17:33N 19°12' W 096°08'9 8.8
2016-Nov-24 16:33N 19°13' W 095°58'  
2016-Nov-21 14:31N 09°21' W 079°55'0 0.0
2016-Nov-21 13:31N 09°21' W 079°55'0 0.0
2016-Nov-21 12:31N 09°21' W 079°55'0 0.0
2016-Nov-21 11:31N 09°21' W 079°55'0 0.0
2016-Nov-21 10:31N 09°21' W 079°55'0 0.0
2016-Nov-21 08:31N 09°21' W 079°55'0 0.0
2016-Nov-21 07:31N 09°21' W 079°55'0 0.0
2016-Nov-21 05:31N 09°21' W 079°55'0 0.0
2016-Nov-21 04:31N 09°21' W 079°55'0 0.0
2016-Nov-21 02:28N 09°21' W 079°55'0 0.0
2016-Nov-21 00:31N 09°21' W 079°55'0 0.0
2016-Nov-20 22:31N 09°21' W 079°55'0 0.0
2016-Nov-20 21:31N 09°21' W 079°55'0 0.0
2016-Nov-20 17:31N 09°21' W 079°55'0 0.0
2016-Nov-20 16:31N 09°21' W 079°55'0 0.0
2016-Nov-20 14:22N 09°21' W 079°55'1 1.2
2016-Nov-20 13:33N 09°22' W 079°55'5 5.3
2016-Nov-20 12:33N 09°27' W 079°55'  
Track history (hours):
 
Tides and Currents Weather Stations Pressure Air Temp Water Temp Dewpoint Dewpoint Depression Visibility Wind Speed Wind Dir Waves Ship Positions

MOL Paramount

Last reported at 2016-Nov-30 10:06 UTC. Time now 2016-Dec-06 14:05 UTC.
Position N 28°56' W 094°23'.

Length 293 m; draft 11.8 m.

Type: Cargo ship. MMSI: 371519000.

Date/timePositionNaut miles runAvg speedWind from/ knotsBaromVisibWave heightAir tempDewpointWater temp
2016-Nov-30 10:06N 28°56' W 094°23'3111.9
2016-Nov-30 07:29N 29°21' W 094°45'1212.7
2016-Nov-30 06:33N 29°30' W 094°52'1111.1
2016-Nov-30 05:33N 29°40' W 094°59'2 1.5
2016-Nov-30 04:26N 29°41' W 095°00'0 0.0
2016-Nov-30 03:26N 29°41' W 095°00'0 0.0
2016-Nov-30 02:26N 29°41' W 095°00'0 0.0
2016-Nov-30 01:23N 29°41' W 095°00'0 0.0
2016-Nov-30 00:32N 29°41' W 095°00'0 0.0
2016-Nov-29 23:05N 29°41' W 095°00'0 0.0
2016-Nov-29 22:23N 29°41' W 095°00'0 0.0
2016-Nov-29 21:29N 29°41' W 095°00'0 0.0
2016-Nov-29 20:32N 29°41' W 095°00'0 0.0
2016-Nov-29 19:29N 29°41' W 095°00'0 0.0
2016-Nov-29 18:17N 29°41' W 095°00'0 0.0
2016-Nov-29 16:32N 29°41' W 095°00'0 0.0
2016-Nov-29 15:32N 29°41' W 095°00'0 0.0
2016-Nov-29 14:32N 29°41' W 095°00'0 0.0
2016-Nov-29 13:32N 29°41' W 095°00'0 0.0
2016-Nov-29 12:32N 29°41' W 095°00'0 0.0
2016-Nov-29 10:20N 29°41' W 095°00'0 0.0
2016-Nov-29 09:29N 29°41' W 095°00'0 0.0
2016-Nov-29 08:26N 29°41' W 095°00'0 0.0
2016-Nov-29 07:29N 29°41' W 095°00'0 0.0
2016-Nov-29 06:32N 29°41' W 095°00'0 0.0
2016-Nov-29 05:32N 29°41' W 095°00'0 0.0
2016-Nov-29 04:32N 29°41' W 095°00'0 0.0
2016-Nov-29 03:29N 29°41' W 095°00'0 0.0
2016-Nov-29 02:32N 29°41' W 095°00'0 0.0
2016-Nov-29 01:32N 29°41' W 095°00'0 0.0
2016-Nov-29 00:23N 29°41' W 095°00'0 0.0
2016-Nov-28 23:32N 29°41' W 095°00'0 0.0
2016-Nov-28 22:17N 29°41' W 095°00'0 0.0
2016-Nov-28 21:32N 29°41' W 095°00'0 0.0
2016-Nov-28 20:32N 29°41' W 095°00'0 0.0
2016-Nov-28 19:23N 29°41' W 095°00'0 0.0
2016-Nov-28 18:26N 29°41' W 095°00'0 0.0
2016-Nov-28 17:23N 29°41' W 095°00'0 0.0
2016-Nov-28 16:32N 29°41' W 095°00'0 0.0
2016-Nov-28 15:14N 29°41' W 095°00'0 0.0
2016-Nov-28 14:29N 29°41' W 095°00'0 0.0
2016-Nov-28 13:32N 29°41' W 095°00'0 0.1
2016-Nov-28 12:33N 29°41' W 095°00'4 4.4
2016-Nov-28 11:33N 29°37' W 094°57'1010.4
2016-Nov-28 10:33N 29°28' W 094°51'  
2016-Nov-25 14:16N 19°46' W 096°11'1216.0
2016-Nov-25 13:32N 19°35' W 096°06'1716.7
2016-Nov-25 12:30N 19°20' W 095°58'1010.4
2016-Nov-25 11:31N 19°12' W 096°05'3 3.1
2016-Nov-25 10:31N 19°13' W 096°08'0 0.0
2016-Nov-25 09:19N 19°13' W 096°08'0 0.0
2016-Nov-25 08:07N 19°13' W 096°08'0 0.0
2016-Nov-25 07:31N 19°13' W 096°08'0 0.0
2016-Nov-25 04:31N 19°13' W 096°08'0 0.0
2016-Nov-25 03:22N 19°13' W 096°08'0 0.0
2016-Nov-25 02:25N 19°13' W 096°08'0 0.0
2016-Nov-25 01:22N 19°13' W 096°08'0 0.0
2016-Nov-24 23:28N 19°13' W 096°08'0 0.0
2016-Nov-24 22:25N 19°13' W 096°08'0 0.0
2016-Nov-24 20:13N 19°13' W 096°08'0 0.0
2016-Nov-24 19:31N 19°13' W 096°08'0 0.0
2016-Nov-24 18:10N 19°13' W 096°08'1 1.2
2016-Nov-24 17:33N 19°12' W 096°08'9 8.8
2016-Nov-24 16:33N 19°13' W 095°58'  
2016-Nov-21 14:31N 09°21' W 079°55'0 0.0
2016-Nov-21 13:31N 09°21' W 079°55'0 0.0
2016-Nov-21 12:31N 09°21' W 079°55'0 0.0
2016-Nov-21 11:31N 09°21' W 079°55'0 0.0
2016-Nov-21 10:31N 09°21' W 079°55'0 0.0
2016-Nov-21 08:31N 09°21' W 079°55'0 0.0
2016-Nov-21 07:31N 09°21' W 079°55'0 0.0
2016-Nov-21 05:31N 09°21' W 079°55'0 0.0
2016-Nov-21 04:31N 09°21' W 079°55'0 0.0
2016-Nov-21 02:28N 09°21' W 079°55'0 0.0
2016-Nov-21 00:31N 09°21' W 079°55'0 0.0
2016-Nov-20 22:31N 09°21' W 079°55'0 0.0
2016-Nov-20 21:31N 09°21' W 079°55'0 0.0
2016-Nov-20 17:31N 09°21' W 079°55'0 0.0
2016-Nov-20 16:31N 09°21' W 079°55'0 0.0
2016-Nov-20 14:22N 09°21' W 079°55'1 1.2
2016-Nov-20 13:33N 09°22' W 079°55'5 5.3
2016-Nov-20 12:33N 09°27' W 079°55'  

Dump ship's entire track history